createdAt,value
2018-04-20T00:00:25.709Z,10.10
2018-04-20T00:01:25.704Z,10.40
2018-04-20T00:02:25.703Z,9.60
2018-04-20T00:03:25.704Z,10.30
2018-04-20T00:04:25.703Z,9.60
2018-04-20T00:05:25.704Z,9.20
2018-04-20T00:06:25.701Z,9.20
2018-04-20T00:07:25.701Z,9.60
2018-04-20T00:08:25.705Z,9.40
2018-04-20T00:09:25.704Z,9.60
2018-04-20T00:10:25.701Z,10.40
2018-04-20T00:11:25.701Z,9.00
2018-04-20T00:12:25.703Z,8.70
2018-04-20T00:13:25.702Z,9.40
2018-04-20T00:14:25.697Z,8.90
2018-04-20T00:15:25.697Z,10.10
2018-04-20T00:16:25.696Z,10.00
2018-04-20T00:17:25.696Z,8.70
2018-04-20T00:18:25.694Z,9.20
2018-04-20T00:19:25.693Z,9.10
2018-04-20T00:20:25.694Z,9.20
2018-04-20T00:21:25.692Z,9.40
2018-04-20T00:22:25.695Z,9.00
2018-04-20T00:23:25.693Z,9.30
2018-04-20T00:24:25.689Z,9.90
2018-04-20T00:25:25.690Z,9.40
2018-04-20T00:26:25.690Z,10.30
2018-04-20T00:27:25.690Z,9.80
2018-04-20T00:28:25.687Z,9.40
2018-04-20T00:29:25.685Z,9.70
2018-04-20T00:30:25.684Z,10.20
2018-04-20T00:31:25.681Z,9.50
2018-04-20T00:32:25.683Z,9.60
2018-04-20T00:33:25.681Z,10.20
2018-04-20T00:34:25.682Z,9.60
2018-04-20T00:35:25.683Z,9.10
2018-04-20T00:36:25.677Z,10.80
2018-04-20T00:37:25.677Z,9.40
2018-04-20T00:38:25.675Z,9.90
2018-04-20T00:39:25.675Z,10.10
2018-04-20T00:40:25.674Z,10.10
2018-04-20T00:41:25.673Z,10.30
2018-04-20T00:42:25.672Z,9.20
2018-04-20T00:43:25.670Z,10.20
2018-04-20T00:44:25.679Z,9.80
2018-04-20T00:45:25.668Z,9.10
2018-04-20T00:46:25.670Z,9.30
2018-04-20T00:47:25.669Z,9.90
2018-04-20T00:48:25.664Z,10.50
2018-04-20T00:49:25.669Z,9.60
2018-04-20T00:50:25.662Z,10.00
2018-04-20T00:51:25.662Z,9.40
2018-04-20T00:52:25.664Z,9.60
2018-04-20T00:53:25.664Z,10.40
2018-04-20T00:54:25.657Z,9.10
2018-04-20T00:55:25.656Z,10.40
2018-04-20T00:56:25.655Z,10.50
2018-04-20T00:57:25.654Z,10.20
2018-04-20T00:58:25.651Z,9.60
2018-04-20T00:59:25.684Z,8.80
2018-04-20T01:00:25.652Z,9.80
2018-04-20T01:01:25.649Z,9.30
2018-04-20T01:02:25.646Z,9.70
2018-04-20T01:03:25.645Z,9.50
2018-04-20T01:04:25.668Z,10.40
2018-04-20T01:05:25.646Z,9.20
2018-04-20T01:06:25.645Z,9.50
2018-04-20T01:07:25.644Z,10.70
2018-04-20T01:08:25.640Z,9.30
2018-04-20T01:09:25.682Z,8.60
2018-04-20T01:10:25.641Z,9.10
2018-04-20T01:11:25.634Z,9.90
2018-04-20T01:12:25.637Z,10.50
2018-04-20T01:13:25.632Z,10.10
2018-04-20T01:14:25.630Z,9.20
2018-04-20T01:15:25.627Z,10.50
2018-04-20T01:16:25.627Z,9.50
2018-04-20T01:17:25.626Z,10.10
2018-04-20T01:18:25.627Z,10.30
2018-04-20T01:19:25.625Z,10.30
2018-04-20T01:20:25.620Z,9.60
2018-04-20T01:21:25.618Z,9.50
2018-04-20T01:22:25.617Z,9.00
2018-04-20T01:23:25.615Z,9.50
2018-04-20T01:24:25.618Z,9.80
2018-04-20T01:25:25.616Z,9.10
2018-04-20T01:26:25.610Z,9.20
2018-04-20T01:27:25.610Z,10.30
2018-04-20T01:28:25.607Z,9.20
2018-04-20T01:29:25.615Z,9.70
2018-04-20T01:30:25.606Z,8.80
2018-04-20T01:31:25.605Z,9.60
2018-04-20T01:32:25.603Z,9.50
2018-04-20T01:33:25.601Z,10.50
2018-04-20T01:34:25.598Z,10.00
2018-04-20T01:35:25.597Z,10.00
2018-04-20T01:36:25.600Z,10.10
2018-04-20T01:37:25.645Z,10.40
2018-04-20T01:38:25.593Z,10.40
2018-04-20T01:39:25.593Z,10.40
2018-04-20T01:40:25.592Z,10.00
2018-04-20T01:41:25.588Z,9.10
2018-04-20T01:42:25.590Z,10.30
2018-04-20T01:43:25.589Z,10.50
2018-04-20T01:44:25.619Z,10.20
2018-04-20T01:45:25.584Z,9.90
2018-04-20T01:46:25.585Z,9.00
2018-04-20T01:47:25.582Z,9.60
2018-04-20T01:48:25.578Z,9.40
2018-04-20T01:49:25.580Z,9.10
2018-04-20T01:50:25.574Z,10.40
2018-04-20T01:51:25.573Z,9.50
2018-04-20T01:52:25.573Z,9.60
2018-04-20T01:53:25.572Z,10.20
2018-04-20T01:54:25.569Z,10.00
2018-04-20T01:55:25.567Z,10.10
2018-04-20T01:56:25.567Z,9.30
2018-04-20T01:57:25.565Z,9.70
2018-04-20T01:58:25.566Z,9.70
2018-04-20T01:59:25.591Z,9.90
2018-04-20T02:00:25.574Z,9.70
2018-04-20T02:01:25.563Z,10.10
2018-04-20T02:02:25.558Z,10.10
2018-04-20T02:03:25.558Z,9.50
2018-04-20T02:04:25.560Z,8.80
2018-04-20T02:05:25.559Z,8.50
2018-04-20T02:06:25.554Z,9.40
2018-04-20T02:07:25.552Z,9.60
2018-04-20T02:08:25.551Z,10.60
2018-04-20T02:09:25.588Z,10.60
2018-04-20T02:10:25.550Z,9.80
2018-04-20T02:11:25.549Z,9.40
2018-04-20T02:12:25.548Z,9.20
2018-04-20T02:13:25.548Z,9.10
2018-04-20T02:14:25.549Z,9.80
2018-04-20T02:15:25.547Z,10.70
2018-04-20T02:16:25.543Z,9.60
2018-04-20T02:17:25.543Z,9.40
2018-04-20T02:18:25.544Z,9.60
2018-04-20T02:19:25.565Z,9.20
2018-04-20T02:20:25.538Z,9.40
2018-04-20T02:21:25.537Z,8.80
2018-04-20T02:22:25.536Z,8.90
2018-04-20T02:23:25.536Z,9.70
2018-04-20T02:24:25.544Z,10.30
2018-04-20T02:25:25.532Z,10.30
2018-04-20T02:26:25.533Z,10.30
2018-04-20T02:27:25.531Z,9.60
2018-04-20T02:28:25.529Z,10.20
2018-04-20T02:29:25.528Z,9.60
2018-04-20T02:30:25.527Z,9.40
2018-04-20T02:31:25.526Z,9.50
2018-04-20T02:32:25.529Z,9.70
2018-04-20T02:33:25.532Z,9.60
2018-04-20T02:34:25.564Z,9.50
2018-04-20T02:35:25.523Z,9.80
2018-04-20T02:36:25.526Z,8.90
2018-04-20T02:37:25.524Z,10.00
2018-04-20T02:38:25.525Z,9.60
2018-04-20T02:39:25.520Z,9.40
2018-04-20T02:40:25.518Z,10.10
2018-04-20T02:41:25.518Z,10.30
2018-04-20T02:42:25.516Z,9.50
2018-04-20T02:43:25.516Z,9.80
2018-04-20T02:44:25.548Z,9.10
2018-04-20T02:45:25.519Z,10.60
2018-04-20T02:46:25.513Z,10.20
2018-04-20T02:47:25.513Z,10.00
2018-04-20T02:48:25.512Z,9.80
2018-04-20T02:49:25.576Z,9.70
2018-04-20T02:50:25.510Z,10.30
2018-04-20T02:51:25.510Z,8.70
2018-04-20T02:52:25.509Z,10.30
2018-04-20T02:53:25.511Z,9.30
2018-04-20T02:54:25.587Z,10.40
2018-04-20T02:55:25.512Z,9.10
2018-04-20T02:56:25.510Z,9.60
2018-04-20T02:57:25.509Z,10.30
2018-04-20T02:58:25.510Z,10.80
2018-04-20T02:59:25.506Z,10.00
2018-04-20T03:00:25.503Z,10.00
2018-04-20T03:01:25.502Z,9.90
2018-04-20T03:02:25.501Z,10.30
2018-04-20T03:03:25.500Z,10.30
2018-04-20T03:04:25.500Z,10.60
2018-04-20T03:05:25.500Z,10.00
2018-04-20T03:06:25.497Z,10.80
2018-04-20T03:07:25.497Z,9.80
2018-04-20T03:08:25.495Z,9.60
2018-04-20T03:09:25.494Z,9.10
2018-04-20T03:10:25.497Z,10.40
2018-04-20T03:11:25.495Z,10.30
2018-04-20T03:12:25.491Z,10.40
2018-04-20T03:13:25.492Z,10.50
2018-04-20T03:14:25.521Z,9.60
2018-04-20T03:15:25.490Z,9.60
2018-04-20T03:16:25.492Z,9.50
2018-04-20T03:17:25.492Z,9.60
2018-04-20T03:18:25.485Z,9.80
2018-04-20T03:19:25.487Z,10.30
2018-04-20T03:20:25.531Z,10.60
2018-04-20T03:21:25.488Z,9.50
2018-04-20T03:22:25.483Z,10.50
2018-04-20T03:23:25.483Z,10.60
2018-04-20T03:24:25.482Z,11.00
2018-04-20T03:25:25.489Z,9.10
2018-04-20T03:26:25.480Z,8.80
2018-04-20T03:27:25.478Z,10.50
2018-04-20T03:28:25.482Z,10.10
2018-04-20T03:29:25.482Z,10.30
2018-04-20T03:30:25.480Z,10.50
2018-04-20T03:31:25.480Z,9.60
2018-04-20T03:32:25.475Z,9.10
2018-04-20T03:33:25.474Z,9.90
2018-04-20T03:34:25.472Z,10.00
2018-04-20T03:35:25.472Z,10.70
2018-04-20T03:36:25.471Z,10.60
2018-04-20T03:37:25.470Z,9.70
2018-04-20T03:38:25.468Z,10.30
2018-04-20T03:39:25.506Z,9.90
2018-04-20T03:40:25.465Z,10.50
2018-04-20T03:41:25.464Z,11.00
2018-04-20T03:42:25.466Z,10.30
2018-04-20T03:43:25.466Z,9.60
2018-04-20T03:44:25.461Z,10.50
2018-04-20T03:45:25.459Z,10.30
2018-04-20T03:46:25.457Z,11.30
2018-04-20T03:47:25.456Z,10.60
2018-04-20T03:48:25.455Z,11.40
2018-04-20T03:49:25.454Z,11.00
2018-04-20T03:50:25.454Z,11.00
2018-04-20T03:51:25.455Z,9.60
2018-04-20T03:52:25.450Z,10.10
2018-04-20T03:53:25.446Z,11.00
2018-04-20T03:54:25.469Z,10.40
2018-04-20T03:55:25.447Z,10.90
2018-04-20T03:56:25.442Z,10.00
2018-04-20T03:57:25.440Z,9.20
2018-04-20T03:58:25.438Z,10.10
2018-04-20T03:59:25.443Z,10.30
2018-04-20T04:00:25.438Z,9.30
2018-04-20T04:01:25.433Z,10.10
2018-04-20T04:02:25.432Z,10.70
2018-04-20T04:03:25.429Z,10.80
2018-04-20T04:04:25.429Z,10.80
2018-04-20T04:05:25.426Z,10.40
2018-04-20T04:06:25.423Z,10.90
2018-04-20T04:07:25.424Z,11.00
2018-04-20T04:08:25.427Z,11.50
2018-04-20T04:09:25.427Z,10.40
2018-04-20T04:10:25.417Z,11.30
2018-04-20T04:11:25.415Z,11.10
2018-04-20T04:12:25.417Z,11.20
2018-04-20T04:13:25.416Z,11.40
2018-04-20T04:14:25.411Z,9.90
2018-04-20T04:15:25.408Z,10.20
2018-04-20T04:16:25.408Z,9.80
2018-04-20T04:17:25.405Z,10.40
2018-04-20T04:18:25.404Z,9.40
2018-04-20T04:19:25.408Z,10.00
2018-04-20T04:20:25.400Z,10.20
2018-04-20T04:21:25.400Z,9.90
2018-04-20T04:22:25.400Z,9.30
2018-04-20T04:23:25.401Z,9.90
2018-04-20T04:24:25.419Z,11.00
2018-04-20T04:25:25.390Z,10.70
2018-04-20T04:26:25.391Z,10.10
2018-04-20T04:27:25.391Z,10.20
2018-04-20T04:28:25.384Z,10.50
2018-04-20T04:29:25.400Z,10.50
2018-04-20T04:30:25.379Z,10.50
2018-04-20T04:31:25.378Z,10.60
2018-04-20T04:32:25.375Z,10.10
2018-04-20T04:33:25.375Z,11.30
2018-04-20T04:34:25.372Z,10.40
2018-04-20T04:35:25.371Z,11.30
2018-04-20T04:36:25.368Z,10.70
2018-04-20T04:37:25.365Z,11.00
2018-04-20T04:38:25.363Z,10.50
2018-04-20T04:39:25.364Z,10.40
2018-04-20T04:40:25.416Z,10.90
2018-04-20T04:41:25.360Z,10.10
2018-04-20T04:42:25.354Z,10.80
2018-04-20T04:43:25.353Z,10.60
2018-04-20T04:44:25.379Z,10.10
2018-04-20T04:45:25.353Z,9.60
2018-04-20T04:46:25.346Z,11.50
2018-04-20T04:47:25.344Z,10.50
2018-04-20T04:48:25.341Z,11.20
2018-04-20T04:49:25.344Z,11.80
2018-04-20T04:50:25.349Z,11.30
2018-04-20T04:51:25.334Z,10.70
2018-04-20T04:52:25.337Z,11.00
2018-04-20T04:53:25.334Z,11.50
2018-04-20T04:54:25.365Z,11.50
2018-04-20T04:55:25.325Z,11.60
2018-04-20T04:56:25.325Z,11.40
2018-04-20T04:57:25.322Z,11.50
2018-04-20T04:58:25.319Z,11.10
2018-04-20T04:59:25.362Z,10.40
2018-04-20T05:00:25.316Z,10.60
2018-04-20T05:01:25.312Z,11.30
2018-04-20T05:02:25.309Z,10.60
2018-04-20T05:03:25.307Z,11.10
2018-04-20T05:04:25.312Z,10.90
2018-04-20T05:05:25.308Z,10.10
2018-04-20T05:06:25.305Z,10.40
2018-04-20T05:07:25.303Z,11.40
2018-04-20T05:08:25.297Z,10.00
2018-04-20T05:09:25.295Z,11.10
2018-04-20T05:10:25.293Z,11.00
2018-04-20T05:11:25.291Z,11.40
2018-04-20T05:12:25.290Z,11.90
2018-04-20T05:13:25.302Z,12.50
2018-04-20T05:14:25.285Z,10.30
2018-04-20T05:15:25.284Z,10.60
2018-04-20T05:16:25.287Z,11.30
2018-04-20T05:17:25.283Z,12.70
2018-04-20T05:18:25.283Z,11.60
2018-04-20T05:19:25.293Z,11.90
2018-04-20T05:20:25.277Z,12.70
2018-04-20T05:21:25.276Z,12.90
2018-04-20T05:22:25.274Z,13.90
2018-04-20T05:23:25.275Z,13.90
2018-04-20T05:24:25.281Z,12.10
2018-04-20T05:25:25.291Z,14.40
2018-04-20T05:26:25.273Z,14.30
2018-04-20T05:27:25.272Z,14.50
2018-04-20T05:28:25.271Z,16.20
2018-04-20T05:29:25.271Z,17.30
2018-04-20T05:30:25.271Z,18.20
2018-04-20T05:31:25.272Z,18.40
2018-04-20T05:32:25.274Z,18.90
2018-04-20T05:33:25.275Z,34.60
2018-04-20T05:34:25.270Z,132.00
2018-04-20T05:35:25.272Z,228.30
2018-04-20T05:36:25.276Z,228.70
2018-04-20T05:37:25.277Z,115.30
2018-04-20T05:38:25.277Z,91.50
2018-04-20T05:39:25.279Z,110.00
2018-04-20T05:40:25.277Z,42.60
2018-04-20T05:41:25.278Z,13.10
2018-04-20T05:42:25.279Z,11.50
2018-04-20T05:43:25.282Z,11.40
2018-04-20T05:44:25.283Z,11.20
2018-04-20T05:45:25.286Z,10.50
2018-04-20T05:46:25.286Z,11.20
2018-04-20T05:47:25.290Z,10.70
2018-04-20T05:48:25.292Z,10.90
2018-04-20T05:49:25.295Z,10.50
2018-04-20T05:50:25.300Z,11.30
2018-04-20T05:51:25.308Z,11.40
2018-04-20T05:52:25.302Z,10.80
2018-04-20T05:53:25.306Z,10.80
2018-04-20T05:54:25.308Z,11.10
2018-04-20T05:55:25.311Z,10.50
2018-04-20T05:56:25.319Z,10.40
2018-04-20T05:57:25.324Z,10.50
2018-04-20T05:58:25.322Z,11.00
2018-04-20T05:59:25.326Z,10.50
2018-04-20T06:00:25.332Z,10.60
2018-04-20T06:01:25.338Z,11.00
2018-04-20T06:02:25.339Z,10.70
2018-04-20T06:03:25.343Z,10.90
2018-04-20T06:04:25.347Z,11.40
2018-04-20T06:05:25.353Z,11.10
2018-04-20T06:06:25.356Z,11.20
2018-04-20T06:07:25.361Z,10.30
2018-04-20T06:08:25.370Z,10.90
2018-04-20T06:09:25.390Z,11.00
2018-04-20T06:10:25.379Z,10.70
2018-04-20T06:11:25.384Z,10.70
2018-04-20T06:12:25.386Z,10.90
2018-04-20T06:13:25.390Z,10.80
2018-04-20T06:14:25.396Z,10.90
2018-04-20T06:15:25.423Z,10.50
2018-04-20T06:16:25.411Z,11.10
2018-04-20T06:17:25.411Z,11.00
2018-04-20T06:18:25.420Z,11.00
2018-04-20T06:19:25.422Z,11.10
2018-04-20T06:20:25.427Z,10.90
2018-04-20T06:21:25.433Z,10.50
2018-04-20T06:22:25.445Z,11.10
2018-04-20T06:23:25.448Z,11.00
2018-04-20T06:24:25.450Z,11.20
2018-04-20T06:25:25.456Z,10.60
2018-04-20T06:26:25.497Z,10.90
2018-04-20T06:27:25.466Z,10.10
2018-04-20T06:28:25.476Z,9.90
2018-04-20T06:29:25.483Z,10.60
2018-04-20T06:30:25.484Z,10.70
2018-04-20T06:31:25.498Z,11.90
2018-04-20T06:32:25.498Z,11.00
2018-04-20T06:33:25.503Z,10.50
2018-04-20T06:34:25.536Z,10.40
2018-04-20T06:35:25.515Z,9.40
2018-04-20T06:36:25.525Z,10.30
2018-04-20T06:37:25.530Z,9.90
2018-04-20T06:38:25.535Z,8.90
2018-04-20T06:39:25.542Z,9.40
2018-04-20T06:40:25.553Z,8.60
2018-04-20T06:41:25.560Z,9.10
2018-04-20T06:42:25.566Z,9.70
2018-04-20T06:43:25.573Z,8.90
2018-04-20T06:44:25.577Z,9.60
2018-04-20T06:45:25.585Z,9.20
2018-04-20T06:46:25.591Z,8.40
2018-04-20T06:47:25.600Z,8.20
2018-04-20T06:48:25.608Z,8.50
2018-04-20T06:49:25.616Z,8.80
2018-04-20T06:50:25.623Z,8.70
2018-04-20T06:51:25.631Z,9.20
2018-04-20T06:52:25.642Z,9.80
2018-04-20T06:53:25.648Z,8.20
2018-04-20T06:54:25.660Z,8.80
2018-04-20T06:55:25.668Z,8.40
2018-04-20T06:56:25.680Z,8.00
2018-04-20T06:57:25.685Z,8.00
2018-04-20T06:58:25.692Z,8.10
2018-04-20T06:59:25.732Z,8.40
2018-04-20T07:00:25.710Z,8.60
2018-04-20T07:01:25.719Z,8.40
2018-04-20T07:02:25.731Z,8.60
2018-04-20T07:03:25.742Z,8.00
2018-04-20T07:04:25.746Z,8.90
2018-04-20T07:05:25.756Z,8.30
2018-04-20T07:06:25.769Z,8.60
2018-04-20T07:07:25.779Z,9.40
2018-04-20T07:08:25.785Z,9.20
2018-04-20T07:09:25.794Z,8.00
2018-04-20T07:10:25.804Z,9.10
2018-04-20T07:11:25.813Z,8.00
2018-04-20T07:12:25.824Z,8.90
2018-04-20T07:13:25.834Z,7.90
2018-04-20T07:14:25.843Z,8.00
2018-04-20T07:15:25.853Z,8.00
2018-04-20T07:16:25.863Z,7.70
2018-04-20T07:17:25.873Z,8.20
2018-04-20T07:18:25.882Z,8.30
2018-04-20T07:19:25.897Z,8.40
2018-04-20T07:20:25.911Z,8.50
2018-04-20T07:21:25.923Z,8.10
2018-04-20T07:22:25.924Z,8.30
2018-04-20T07:23:25.993Z,8.00
2018-04-20T07:24:25.950Z,8.10
2018-04-20T07:25:25.960Z,7.60
2018-04-20T07:26:25.966Z,7.40
2018-04-20T07:27:25.977Z,7.40
2018-04-20T07:28:25.989Z,6.90
2018-04-20T07:29:25.998Z,8.00
2018-04-20T07:30:26.008Z,7.30
2018-04-20T07:31:26.019Z,7.30
2018-04-20T07:32:26.029Z,8.10
2018-04-20T07:33:26.042Z,7.20
2018-04-20T07:34:26.054Z,7.20
2018-04-20T07:35:26.066Z,7.20
2018-04-20T07:36:26.074Z,6.40
2018-04-20T07:37:26.084Z,7.00
2018-04-20T07:38:26.099Z,7.10
2018-04-20T07:39:26.111Z,6.50
2018-04-20T07:40:26.118Z,6.70
2018-04-20T07:41:26.160Z,6.60
2018-04-20T07:42:26.142Z,7.00
2018-04-20T07:43:26.154Z,6.70
2018-04-20T07:44:26.167Z,7.30
2018-04-20T07:45:26.180Z,7.50
2018-04-20T07:46:26.191Z,6.30
2018-04-20T07:47:26.205Z,6.20
2018-04-20T07:48:26.217Z,6.20
2018-04-20T07:49:26.229Z,6.50
2018-04-20T07:50:26.241Z,6.80
2018-04-20T07:51:26.253Z,6.90
2018-04-20T07:52:26.271Z,7.50
2018-04-20T07:53:26.286Z,7.50
2018-04-20T07:54:26.298Z,6.30
2018-04-20T07:55:26.307Z,6.60
2018-04-20T07:56:26.324Z,5.70
2018-04-20T07:57:26.340Z,7.20
2018-04-20T07:58:26.346Z,6.50
2018-04-20T07:59:26.361Z,6.50
2018-04-20T08:00:26.403Z,7.00
2018-04-20T08:01:26.388Z,7.00
2018-04-20T08:02:26.404Z,6.90
2018-04-20T08:03:26.416Z,5.70
2018-04-20T08:04:26.436Z,6.50
2018-04-20T08:05:26.448Z,6.90
2018-04-20T08:06:26.459Z,6.90
2018-04-20T08:07:26.473Z,6.50
2018-04-20T08:08:26.488Z,6.70
2018-04-20T08:09:26.503Z,7.00
2018-04-20T08:10:26.517Z,6.90
2018-04-20T08:11:26.532Z,7.00
2018-04-20T08:12:26.546Z,6.10
2018-04-20T08:13:26.563Z,5.90
2018-04-20T08:14:26.576Z,6.60
2018-04-20T08:15:26.592Z,6.60
2018-04-20T08:16:26.611Z,5.50
2018-04-20T08:17:26.626Z,6.00
2018-04-20T08:18:26.641Z,6.80
2018-04-20T08:19:26.657Z,6.40
2018-04-20T08:20:26.668Z,5.20
2018-04-20T08:21:26.688Z,6.10
2018-04-20T08:22:26.698Z,5.30
2018-04-20T08:23:26.715Z,5.30
2018-04-20T08:24:26.732Z,5.70
2018-04-20T08:25:26.748Z,6.00
2018-04-20T08:26:26.762Z,5.30
2018-04-20T08:27:26.778Z,6.00
2018-04-20T08:28:26.795Z,5.30
2018-04-20T08:29:26.812Z,5.50
2018-04-20T08:30:26.831Z,5.80
2018-04-20T08:31:26.846Z,5.80
2018-04-20T08:32:26.859Z,5.50
2018-04-20T08:33:26.875Z,6.00
2018-04-20T08:34:26.891Z,6.30
2018-04-20T08:35:26.909Z,6.50
2018-04-20T08:36:26.933Z,6.30
2018-04-20T08:37:26.944Z,6.60
2018-04-20T08:38:26.955Z,5.70
2018-04-20T08:39:26.971Z,5.60
2018-04-20T08:40:26.989Z,5.60
2018-04-20T08:41:27.005Z,6.60
2018-04-20T08:42:27.023Z,5.50
2018-04-20T08:43:27.046Z,5.00
2018-04-20T08:44:27.060Z,5.10
2018-04-20T08:45:27.074Z,5.60
2018-04-20T08:46:27.089Z,6.20
2018-04-20T08:47:27.106Z,5.10
2018-04-20T08:48:27.126Z,4.30
2018-04-20T08:49:27.145Z,5.30
2018-04-20T08:50:27.160Z,4.70
2018-04-20T08:51:27.177Z,4.80
2018-04-20T08:52:27.191Z,5.50
2018-04-20T08:53:27.209Z,4.50
2018-04-20T08:54:27.225Z,5.40
2018-04-20T08:55:27.243Z,5.80
2018-04-20T08:56:27.261Z,6.60
2018-04-20T08:57:27.278Z,6.00
2018-04-20T08:58:27.295Z,5.00
2018-04-20T08:59:27.315Z,4.90
2018-04-20T09:00:27.331Z,5.00
2018-04-20T09:01:27.351Z,4.60
2018-04-20T09:02:27.373Z,5.10
2018-04-20T09:03:27.390Z,5.00
2018-04-20T09:04:27.403Z,4.80
2018-04-20T09:05:27.421Z,4.50
2018-04-20T09:06:27.438Z,4.40
2018-04-20T09:07:27.458Z,4.40
2018-04-20T09:08:27.475Z,4.60
2018-04-20T09:09:27.494Z,4.20
2018-04-20T09:10:27.515Z,4.30
2018-04-20T09:11:27.535Z,4.80
2018-04-20T09:12:27.548Z,4.30
2018-04-20T09:13:27.566Z,4.70
2018-04-20T09:14:27.588Z,4.60
2018-04-20T09:15:27.606Z,4.60
2018-04-20T09:16:27.623Z,3.70
2018-04-20T09:17:27.640Z,4.60
2018-04-20T09:18:27.696Z,3.60
2018-04-20T09:19:27.678Z,3.90
2018-04-20T09:20:27.698Z,3.50
2018-04-20T09:21:27.717Z,3.60
2018-04-20T09:22:27.735Z,3.60
2018-04-20T09:23:27.756Z,3.80
2018-04-20T09:24:27.792Z,3.50
2018-04-20T09:25:27.794Z,3.70
2018-04-20T09:26:27.813Z,3.90
2018-04-20T09:27:27.833Z,4.40
2018-04-20T09:28:27.858Z,4.60
2018-04-20T09:29:27.877Z,4.70
2018-04-20T09:30:27.894Z,4.20
2018-04-20T09:31:27.915Z,4.80
2018-04-20T09:32:27.939Z,4.60
2018-04-20T09:33:27.959Z,3.90
2018-04-20T09:34:28.005Z,4.00
2018-04-20T09:35:27.995Z,3.90
2018-04-20T09:36:28.018Z,3.80
2018-04-20T09:37:28.038Z,4.40
2018-04-20T09:38:28.058Z,4.10
2018-04-20T09:39:28.080Z,3.80
2018-04-20T09:40:28.103Z,4.10
2018-04-20T09:41:28.121Z,4.30
2018-04-20T09:42:28.146Z,4.40
2018-04-20T09:43:28.167Z,4.50
2018-04-20T09:44:28.189Z,4.10
2018-04-20T09:45:28.206Z,4.30
2018-04-20T09:46:28.232Z,4.90
2018-04-20T09:47:28.253Z,4.10
2018-04-20T09:48:28.271Z,4.10
2018-04-20T09:49:28.292Z,5.20
2018-04-20T09:50:28.314Z,5.40
2018-04-20T09:51:28.391Z,5.00
2018-04-20T09:52:28.355Z,5.10
2018-04-20T09:53:28.376Z,5.60
2018-04-20T09:54:28.403Z,5.60
2018-04-20T09:55:28.418Z,5.10
2018-04-20T09:56:28.442Z,5.80
2018-04-20T09:57:28.462Z,5.20
2018-04-20T09:58:28.480Z,4.80
2018-04-20T09:59:28.503Z,5.00
2018-04-20T10:00:28.582Z,5.00
2018-04-20T10:01:28.549Z,4.90
2018-04-20T10:02:28.564Z,4.90
2018-04-20T10:03:28.613Z,4.80
2018-04-20T10:04:28.610Z,5.60
2018-04-20T10:05:28.701Z,5.10
2018-04-20T10:06:28.646Z,4.90
2018-04-20T10:07:28.666Z,5.50
2018-04-20T10:08:28.687Z,5.20
2018-04-20T10:09:28.706Z,5.90
2018-04-20T10:10:28.726Z,5.50
2018-04-20T10:11:28.744Z,6.00
2018-04-20T10:12:28.768Z,5.40
2018-04-20T10:13:28.787Z,5.00
2018-04-20T10:14:28.802Z,5.90
2018-04-20T10:15:28.823Z,5.10
2018-04-20T10:16:28.841Z,5.20
2018-04-20T10:17:28.861Z,6.50
2018-04-20T10:18:28.878Z,6.40
2018-04-20T10:19:28.898Z,6.30
2018-04-20T10:20:28.917Z,6.10
2018-04-20T10:21:28.938Z,6.10
2018-04-20T10:22:28.955Z,7.20
2018-04-20T10:23:28.976Z,6.90
2018-04-20T10:24:29.000Z,6.20
2018-04-20T10:25:29.020Z,6.50
2018-04-20T10:26:29.037Z,7.10
2018-04-20T10:27:29.058Z,6.80
2018-04-20T10:28:29.073Z,7.00
2018-04-20T10:29:29.093Z,7.00
2018-04-20T10:30:29.111Z,6.70
2018-04-20T10:31:29.131Z,6.60
2018-04-20T10:32:29.151Z,6.90
2018-04-20T10:33:29.171Z,7.10
2018-04-20T10:34:29.190Z,6.90
2018-04-20T10:35:29.211Z,7.00
2018-04-20T10:36:29.230Z,6.60
2018-04-20T10:37:29.253Z,6.40
2018-04-20T10:38:29.274Z,6.80
2018-04-20T10:39:29.294Z,6.80
2018-04-20T10:40:29.312Z,7.10
2018-04-20T10:41:29.353Z,7.20
2018-04-20T10:42:29.348Z,7.40
2018-04-20T10:43:29.366Z,7.30
2018-04-20T10:44:29.390Z,7.60
2018-04-20T10:45:29.411Z,7.30
2018-04-20T10:46:29.425Z,7.20
2018-04-20T10:47:29.445Z,7.30
2018-04-20T10:48:29.518Z,6.50
2018-04-20T10:49:29.485Z,8.00
2018-04-20T10:50:29.504Z,7.30
2018-04-20T10:51:29.526Z,7.30
2018-04-20T10:52:29.547Z,7.50
2018-04-20T10:53:29.562Z,7.50
2018-04-20T10:54:29.579Z,7.40
2018-04-20T10:55:29.600Z,7.50
2018-04-20T10:56:29.632Z,7.00
2018-04-20T10:57:29.644Z,7.50
2018-04-20T10:58:29.663Z,6.80
2018-04-20T10:59:29.682Z,7.50
2018-04-20T11:00:29.697Z,7.70
2018-04-20T11:01:29.718Z,7.20
2018-04-20T11:02:29.740Z,7.40
2018-04-20T11:03:29.764Z,7.00
2018-04-20T11:04:29.777Z,6.70
2018-04-20T11:05:29.797Z,7.70
2018-04-20T11:06:29.817Z,7.60
2018-04-20T11:07:29.837Z,6.70
2018-04-20T11:08:29.856Z,6.90
2018-04-20T11:09:29.877Z,6.80
2018-04-20T11:10:29.900Z,6.90
2018-04-20T11:11:29.941Z,6.80
2018-04-20T11:12:29.940Z,6.40
2018-04-20T11:13:29.957Z,6.40
2018-04-20T11:14:29.977Z,6.20
2018-04-20T11:15:29.997Z,5.80
2018-04-20T11:16:30.018Z,5.80
2018-04-20T11:17:30.037Z,6.30
2018-04-20T11:18:30.060Z,6.80
2018-04-20T11:19:30.083Z,6.40
2018-04-20T11:20:30.097Z,7.30
2018-04-20T11:21:30.116Z,7.50
2018-04-20T11:22:30.140Z,7.30
2018-04-20T11:23:30.158Z,7.80
2018-04-20T11:24:30.173Z,7.70
2018-04-20T11:25:30.192Z,8.50
2018-04-20T11:26:30.209Z,8.70
2018-04-20T11:27:30.229Z,8.40
2018-04-20T11:28:30.252Z,8.70
2018-04-20T11:29:30.263Z,8.60
2018-04-20T11:30:30.279Z,8.80
2018-04-20T11:31:30.296Z,8.20
2018-04-20T11:32:30.314Z,8.20
2018-04-20T11:33:30.330Z,8.10
2018-04-20T11:34:30.354Z,8.10
2018-04-20T11:35:30.359Z,8.00
2018-04-20T11:36:30.386Z,8.70
2018-04-20T11:37:30.398Z,9.00
2018-04-20T11:38:30.406Z,9.60
2018-04-20T11:39:30.419Z,9.90
2018-04-20T11:40:30.437Z,9.30
2018-04-20T11:41:30.451Z,10.20
2018-04-20T11:42:30.461Z,10.40
2018-04-20T11:43:30.473Z,10.80
2018-04-20T11:44:30.488Z,10.30
2018-04-20T11:45:30.499Z,10.30
2018-04-20T11:46:30.513Z,10.80
2018-04-20T11:47:30.524Z,10.20
2018-04-20T11:48:30.537Z,10.80
2018-04-20T11:49:30.550Z,11.00
2018-04-20T11:50:30.565Z,9.60
2018-04-20T11:51:30.577Z,9.60
2018-04-20T11:52:30.585Z,9.50
2018-04-20T11:53:30.596Z,9.00
2018-04-20T11:54:30.610Z,9.60
2018-04-20T11:55:30.621Z,9.40
2018-04-20T11:56:30.632Z,10.40
2018-04-20T11:57:30.639Z,9.40
2018-04-20T11:58:30.652Z,9.70
2018-04-20T11:59:30.661Z,9.60
2018-04-20T12:00:30.670Z,9.80
2018-04-20T12:01:30.682Z,9.70
2018-04-20T12:02:30.690Z,9.40
2018-04-20T12:03:30.703Z,9.70
2018-04-20T12:04:30.713Z,9.60
2018-04-20T12:05:30.720Z,10.00
2018-04-20T12:06:30.742Z,10.00
2018-04-20T12:07:30.743Z,10.00
2018-04-20T12:08:30.753Z,9.80
2018-04-20T12:09:30.766Z,10.00
2018-04-20T12:10:30.766Z,10.00
2018-04-20T12:11:30.776Z,10.30
2018-04-20T12:12:30.792Z,9.70
2018-04-20T12:13:30.799Z,9.80
2018-04-20T12:14:30.803Z,9.90
2018-04-20T12:15:30.813Z,10.10
2018-04-20T12:16:30.822Z,9.30
2018-04-20T12:17:30.831Z,9.90
2018-04-20T12:18:30.840Z,9.80
2018-04-20T12:19:30.849Z,9.80
2018-04-20T12:20:30.860Z,9.80
2018-04-20T12:21:30.870Z,9.70
2018-04-20T12:22:30.876Z,10.30
2018-04-20T12:23:30.883Z,9.60
2018-04-20T12:24:30.892Z,10.10
2018-04-20T12:25:30.911Z,9.50
2018-04-20T12:26:30.910Z,9.30
2018-04-20T12:27:30.974Z,9.80
2018-04-20T12:28:30.927Z,9.50
2018-04-20T12:29:30.936Z,9.70
2018-04-20T12:30:30.944Z,9.80
2018-04-20T12:31:30.994Z,9.60
2018-04-20T12:32:30.966Z,9.70
2018-04-20T12:33:30.992Z,10.10
2018-04-20T12:34:30.982Z,10.10
2018-04-20T12:35:30.992Z,9.60
2018-04-20T12:36:30.996Z,9.30
2018-04-20T12:37:31.076Z,9.60
2018-04-20T12:38:31.012Z,10.20
2018-04-20T12:39:31.022Z,10.30
2018-04-20T12:40:31.029Z,10.20
2018-04-20T12:41:31.039Z,10.30
2018-04-20T12:42:31.045Z,10.50
2018-04-20T12:43:31.054Z,10.00
2018-04-20T12:44:31.101Z,10.90
2018-04-20T12:45:31.075Z,10.70
2018-04-20T12:46:31.083Z,10.60
2018-04-20T12:47:31.110Z,10.70
2018-04-20T12:48:31.096Z,10.10
2018-04-20T12:49:31.106Z,10.10
2018-04-20T12:50:31.112Z,10.90
2018-04-20T12:51:31.121Z,10.20
2018-04-20T12:52:31.133Z,9.40
2018-04-20T12:53:31.145Z,9.10
2018-04-20T12:54:31.145Z,9.80
2018-04-20T12:55:31.158Z,9.60
2018-04-20T12:56:31.163Z,8.90
2018-04-20T12:57:31.171Z,8.80
2018-04-20T12:58:31.183Z,8.60
2018-04-20T12:59:31.191Z,10.20
2018-04-20T13:00:31.195Z,9.10
2018-04-20T13:01:31.205Z,9.60
2018-04-20T13:02:31.215Z,9.90
2018-04-20T13:03:31.220Z,9.50
2018-04-20T13:04:31.233Z,9.70
2018-04-20T13:05:31.241Z,9.00
2018-04-20T13:06:31.248Z,9.20
2018-04-20T13:07:31.256Z,8.50
2018-04-20T13:08:31.262Z,9.50